Time;durP1;ratioP1;P1;durP2;ratioP2;P2;SDS_P1;SDS_P2;PMS_P1;PMS_P2;Temp;Humidity;BMP_temperature;BMP_pressure;BME280_temperature;BME280_humidity;BME280_pressure;Samples;Min_cycle;Max_cycle;Signal;HPM_P1;HPM_P2
2022/12/28 00:00:18;;;;;;;4.05;0.90;;;;;;;;;;5304573;28;20111;-71
2022/12/28 00:02:49;;;;;;;3.03;1.00;;;;;;;;;;5303060;28;20376;-71
2022/12/28 00:05:21;;;;;;;4.55;0.90;;;;;;;;;;5304329;28;20073;-71
2022/12/28 00:07:52;;;;;;;5.88;1.02;;;;;;;;;;5303872;28;20016;-71
2022/12/28 00:10:23;;;;;;;4.90;1.08;;;;;;;;;;5303370;28;20446;-70
2022/12/28 00:12:54;;;;;;;4.13;1.00;;;;;;;;;;5304056;28;20020;-70
2022/12/28 00:15:25;;;;;;;4.05;1.05;;;;;;;;;;5303112;28;20460;-71
2022/12/28 00:17:57;;;;;;;4.07;1.33;;;;;;;;;;5303855;28;20060;-70
2022/12/28 00:20:28;;;;;;;5.63;1.15;;;;;;;;;;5302743;28;20467;-70
2022/12/28 00:23:03;;;;;;;4.05;0.93;;;;;;;;;;5302932;28;20024;-71
2022/12/28 00:25:34;;;;;;;5.40;1.00;;;;;;;;;;5304006;28;20027;-70
2022/12/28 00:28:05;;;;;;;2.55;0.90;;;;;;;;;;5303844;28;20023;-71
2022/12/28 00:30:37;;;;;;;3.92;0.95;;;;;;;;;;5302744;28;20051;-72
2022/12/28 00:33:08;;;;;;;3.05;0.90;;;;;;;;;;5303617;28;20052;-72
2022/12/28 00:35:39;;;;;;;2.75;0.82;;;;;;;;;;5303005;28;20545;-72
2022/12/28 00:38:10;;;;;;;3.38;1.00;;;;;;;;;;5303180;28;20471;-71
2022/12/28 00:40:41;;;;;;;3.22;1.02;;;;;;;;;;5303287;28;20016;-71
2022/12/28 00:43:13;;;;;;;4.22;1.05;;;;;;;;;;5303433;28;20038;-71
2022/12/28 00:45:45;;;;;;;3.97;1.10;;;;;;;;;;5302409;28;20024;-71
2022/12/28 00:48:16;;;;;;;6.43;1.48;;;;;;;;;;5303928;28;20016;-70
2022/12/28 00:50:47;;;;;;;3.83;0.93;;;;;;;;;;5302486;28;20020;-72
2022/12/28 00:53:19;;;;;;;5.38;1.00;;;;;;;;;;5303420;28;20024;-69
2022/12/28 00:55:50;;;;;;;4.20;0.90;;;;;;;;;;5302902;28;20020;-70
2022/12/28 00:58:21;;;;;;;4.15;1.00;;;;;;;;;;5302201;28;20048;-70
2022/12/28 01:00:52;;;;;;;3.70;1.20;;;;;;;;;;5303002;28;20031;-70
2022/12/28 01:03:24;;;;;;;3.15;0.85;;;;;;;;;;5303020;28;20028;-69
2022/12/28 01:05:55;;;;;;;4.03;1.05;;;;;;;;;;5302187;28;20020;-70
2022/12/28 01:08:26;;;;;;;4.90;1.10;;;;;;;;;;5302748;28;20047;-71
2022/12/28 01:10:57;;;;;;;3.70;1.00;;;;;;;;;;5303024;28;20035;-70
2022/12/28 01:13:28;;;;;;;3.83;1.00;;;;;;;;;;5302006;28;20024;-70
2022/12/28 01:16:00;;;;;;;3.90;1.00;;;;;;;;;;5302764;28;20016;-70
2022/12/28 01:18:31;;;;;;;2.97;1.20;;;;;;;;;;5301914;28;20028;-70
2022/12/28 01:21:16;;;;;;;4.45;1.00;;;;;;;;;;5302746;28;20450;-70
2022/12/28 01:23:47;;;;;;;4.75;1.15;;;;;;;;;;5302237;28;20038;-70
2022/12/28 01:26:19;;;;;;;5.63;1.42;;;;;;;;;;5302348;28;20386;-70
2022/12/28 01:28:50;;;;;;;3.78;1.10;;;;;;;;;;5302392;28;20024;-70
2022/12/28 01:31:21;;;;;;;4.72;1.10;;;;;;;;;;5302341;28;20012;-70
2022/12/28 01:33:53;;;;;;;4.38;1.35;;;;;;;;;;5301838;28;20372;-71
2022/12/28 01:36:25;;;;;;;3.95;1.02;;;;;;;;;;5302688;28;20020;-71
2022/12/28 01:38:57;;;;;;;3.83;1.20;;;;;;;;;;5302596;28;20020;-71
2022/12/28 01:41:29;;;;;;;2.65;1.02;;;;;;;;;;5301585;28;20045;-70
2022/12/28 01:44:00;;;;;;;2.60;1.08;;;;;;;;;;5302423;28;20071;-70
2022/12/28 01:46:35;;;;;;;5.92;1.10;;;;;;;;;;5302044;28;20067;-70
2022/12/28 01:49:12;;;;;;;4.32;0.80;;;;;;;;;;5302571;28;20024;-70
2022/12/28 01:51:58;;;;;;;2.78;0.82;;;;;;;;;;5302310;28;20552;-71
2022/12/28 01:54:33;;;;;;;2.20;0.85;;;;;;;;;;5301398;28;20016;-72
2022/12/28 01:57:04;;;;;;;3.35;1.23;;;;;;;;;;5302529;28;20012;-71
2022/12/28 01:59:38;;;;;;;2.30;0.90;;;;;;;;;;5302577;28;20049;-71
2022/12/28 02:02:10;;;;;;;3.47;1.00;;;;;;;;;;5301853;28;20028;-71
2022/12/28 02:04:42;;;;;;;4.15;0.80;;;;;;;;;;5301592;28;20066;-71
2022/12/28 02:07:18;;;;;;;3.63;1.20;;;;;;;;;;5302673;28;20070;-71
2022/12/28 02:09:50;;;;;;;3.85;1.05;;;;;;;;;;5301208;28;20031;-71
2022/12/28 02:12:21;;;;;;;3.22;0.90;;;;;;;;;;5302407;28;20367;-71
2022/12/28 02:14:52;;;;;;;2.35;0.77;;;;;;;;;;5301372;28;20016;-71
2022/12/28 02:17:24;;;;;;;3.00;0.90;;;;;;;;;;5301804;28;20056;-70
2022/12/28 02:19:55;;;;;;;3.65;0.90;;;;;;;;;;5301878;28;20016;-71
2022/12/28 02:22:45;;;;;;;4.13;0.70;;;;;;;;;;5301090;28;20509;-71
2022/12/28 02:25:25;;;;;;;2.63;1.10;;;;;;;;;;5302432;28;20044;-70
2022/12/28 02:28:14;;;;;;;1.70;0.70;;;;;;;;;;5302265;28;20103;-69
2022/12/28 02:30:55;;;;;;;3.80;0.80;;;;;;;;;;5300898;28;20099;-70
2022/12/28 02:33:35;;;;;;;3.28;0.80;;;;;;;;;;5302049;28;20099;-70
2022/12/28 02:36:14;;;;;;;3.65;1.08;;;;;;;;;;5301015;28;20413;-70
2022/12/28 02:38:47;;;;;;;3.75;1.00;;;;;;;;;;5301371;28;20095;-71
2022/12/28 02:41:20;;;;;;;4.50;0.90;;;;;;;;;;5302037;28;20024;-70
2022/12/28 02:43:54;;;;;;;3.47;1.20;;;;;;;;;;5303258;28;20036;-71
2022/12/28 02:52:23;;;;;;;5.35;1.10;;;;;;;;;;5305752;28;20036;-71
2022/12/28 02:58:11;;;;;;;3.63;0.80;;;;;;;;;;5304874;28;20391;-70
2022/12/28 03:00:45;;;;;;;2.78;1.27;;;;;;;;;;5305212;28;20028;-71
2022/12/28 03:03:24;;;;;;;2.38;1.02;;;;;;;;;;5305470;28;20043;-70
2022/12/28 03:08:58;;;;;;;2.80;0.90;;;;;;;;;;5304935;28;19904;-71
2022/12/28 03:11:37;;;;;;;3.10;1.02;;;;;;;;;;5304229;28;20024;-71
2022/12/28 03:14:09;;;;;;;3.20;1.73;;;;;;;;;;5305384;28;20024;-71
2022/12/28 03:31:07;;;;;;;4.28;1.45;;;;;;;;;;5304612;28;20067;-70
2022/12/28 03:33:43;;;;;;;2.85;1.17;;;;;;;;;;5304068;28;20043;-71
2022/12/28 03:36:14;;;;;;;5.45;2.38;;;;;;;;;;5304751;28;20035;-71
2022/12/28 03:38:45;;;;;;;3.78;1.45;;;;;;;;;;5304069;28;20028;-71
2022/12/28 03:41:24;;;;;;;4.48;1.20;;;;;;;;;;5304080;28;20312;-71
2022/12/28 03:43:58;;;;;;;3.25;1.80;;;;;;;;;;5304331;28;20397;-71
2022/12/28 03:46:49;;;;;;;3.42;1.27;;;;;;;;;;5303312;28;20078;-71
2022/12/28 03:49:22;;;;;;;3.15;1.33;;;;;;;;;;5304276;28;20135;-71
2022/12/28 03:51:54;;;;;;;3.95;1.30;;;;;;;;;;5304447;28;20483;-71
2022/12/28 03:54:25;;;;;;;3.10;1.70;;;;;;;;;;5303598;28;20100;-71
2022/12/28 03:56:57;;;;;;;2.95;1.27;;;;;;;;;;5304166;28;20012;-71
2022/12/28 03:59:28;;;;;;;3.55;1.10;;;;;;;;;;5304156;28;20016;-71
2022/12/28 04:01:59;;;;;;;2.28;1.15;;;;;;;;;;5303468;28;20031;-71
2022/12/28 04:04:30;;;;;;;2.42;1.20;;;;;;;;;;5304253;28;20063;-71
2022/12/28 04:07:01;;;;;;;3.28;1.33;;;;;;;;;;5304028;28;20027;-71
2022/12/28 04:09:33;;;;;;;3.38;1.10;;;;;;;;;;5303027;28;20020;-71
2022/12/28 04:12:04;;;;;;;2.88;1.33;;;;;;;;;;5303842;28;20025;-71
2022/12/28 04:14:35;;;;;;;3.83;1.30;;;;;;;;;;5303186;28;20019;-71
2022/12/28 04:17:06;;;;;;;4.65;1.30;;;;;;;;;;5303870;28;20085;-71
2022/12/28 04:19:38;;;;;;;3.00;1.08;;;;;;;;;;5303927;28;20016;-71
2022/12/28 04:22:09;;;;;;;3.63;1.10;;;;;;;;;;5302983;28;20028;-71
2022/12/28 04:24:40;;;;;;;3.33;1.10;;;;;;;;;;5303279;28;20035;-71
2022/12/28 04:27:11;;;;;;;2.58;1.10;;;;;;;;;;5303825;28;20016;-71
2022/12/28 04:29:42;;;;;;;3.83;0.98;;;;;;;;;;5302633;28;20047;-71
2022/12/28 04:32:13;;;;;;;5.35;1.38;;;;;;;;;;5303833;28;20495;-71
2022/12/28 04:34:45;;;;;;;3.42;0.88;;;;;;;;;;5303206;28;20027;-70
2022/12/28 04:37:16;;;;;;;3.72;0.88;;;;;;;;;;5303078;28;20051;-71
2022/12/28 04:39:47;;;;;;;3.63;1.20;;;;;;;;;;5302812;28;20041;-71
2022/12/28 04:42:18;;;;;;;2.50;1.00;;;;;;;;;;5303775;28;20433;-71
2022/12/28 04:44:49;;;;;;;4.03;1.10;;;;;;;;;;5302050;28;20111;-71
2022/12/28 04:47:20;;;;;;;3.03;1.10;;;;;;;;;;5303054;28;20093;-72
2022/12/28 04:49:52;;;;;;;3.50;0.93;;;;;;;;;;5302301;28;20028;-71
2022/12/28 04:52:23;;;;;;;6.47;1.30;;;;;;;;;;5303230;28;20423;-71
2022/12/28 04:54:54;;;;;;;2.55;0.93;;;;;;;;;;5303224;28;20521;-71
2022/12/28 04:57:25;;;;;;;3.42;1.05;;;;;;;;;;5302377;28;20020;-70
2022/12/28 04:59:56;;;;;;;2.38;1.05;;;;;;;;;;5302844;28;20027;-70
2022/12/28 05:02:28;;;;;;;3.13;1.38;;;;;;;;;;5303019;28;20016;-70
2022/12/28 05:04:59;;;;;;;3.75;0.90;;;;;;;;;;5302181;28;20376;-70
2022/12/28 05:07:30;;;;;;;2.28;1.25;;;;;;;;;;5302726;28;20016;-70
2022/12/28 05:10:01;;;;;;;3.35;0.75;;;;;;;;;;5302567;28;20065;-71
2022/12/28 05:12:32;;;;;;;3.75;1.40;;;;;;;;;;5302387;28;20035;-70
2022/12/28 05:15:04;;;;;;;4.05;0.88;;;;;;;;;;5302909;28;20035;-71
2022/12/28 05:17:35;;;;;;;3.30;1.10;;;;;;;;;;5301966;28;20016;-70
2022/12/28 05:20:06;;;;;;;2.03;1.08;;;;;;;;;;5302824;28;20032;-70
2022/12/28 05:22:37;;;;;;;3.25;1.02;;;;;;;;;;5302657;28;20031;-70
2022/12/28 05:25:09;;;;;;;3.97;1.02;;;;;;;;;;5302252;28;20077;-71
2022/12/28 05:27:40;;;;;;;1.88;0.80;;;;;;;;;;5302506;28;20024;-71
2022/12/28 05:30:11;;;;;;;3.38;0.98;;;;;;;;;;5302977;28;20031;-69
2022/12/28 05:32:42;;;;;;;7.07;1.25;;;;;;;;;;5301520;28;20023;-70
2022/12/28 05:35:13;;;;;;;3.88;1.00;;;;;;;;;;5302947;28;20028;-70
2022/12/28 05:37:45;;;;;;;3.78;0.90;;;;;;;;;;5302169;28;20016;-70
2022/12/28 05:40:16;;;;;;;2.70;0.90;;;;;;;;;;5302264;28;20455;-70
2022/12/28 05:42:47;;;;;;;2.95;0.85;;;;;;;;;;5302151;28;20022;-70
2022/12/28 05:45:18;;;;;;;3.88;1.10;;;;;;;;;;5302784;28;20036;-70
2022/12/28 05:47:49;;;;;;;2.13;0.77;;;;;;;;;;5301181;28;20071;-69
2022/12/28 05:50:20;;;;;;;3.50;0.80;;;;;;;;;;5302567;28;20023;-71
2022/12/28 05:52:52;;;;;;;3.10;1.00;;;;;;;;;;5301609;28;20017;-70
2022/12/28 05:55:23;;;;;;;3.67;0.90;;;;;;;;;;5302513;28;20387;-70
2022/12/28 05:57:54;;;;;;;3.72;0.80;;;;;;;;;;5302217;28;20027;-70
2022/12/28 06:00:26;;;;;;;3.22;1.08;;;;;;;;;;5301581;28;20074;-70
2022/12/28 06:02:57;;;;;;;5.20;1.13;;;;;;;;;;5302168;28;20634;-70
2022/12/28 06:05:28;;;;;;;3.50;0.80;;;;;;;;;;5302429;28;20538;-70
2022/12/28 06:07:59;;;;;;;1.90;0.60;;;;;;;;;;5301633;28;20020;-70
2022/12/28 06:10:30;;;;;;;2.92;0.82;;;;;;;;;;5302057;28;20028;-71
2022/12/28 06:13:01;;;;;;;2.58;0.68;;;;;;;;;;5302370;28;20024;-70
2022/12/28 06:15:33;;;;;;;2.30;0.95;;;;;;;;;;5301585;28;20023;-71
2022/12/28 06:18:04;;;;;;;3.54;0.70;;;;;;;;;;5303568;28;20032;-70
2022/12/28 06:20:35;;;;;;;2.22;0.60;;;;;;;;;;5306308;28;20022;-70
2022/12/28 06:23:06;;;;;;;2.20;0.80;;;;;;;;;;5305299;28;20028;-70
2022/12/28 06:25:37;;;;;;;3.38;0.55;;;;;;;;;;5306427;28;20025;-71
2022/12/28 06:28:08;;;;;;;2.88;0.57;;;;;;;;;;5305527;28;20085;-71
2022/12/28 06:30:40;;;;;;;2.00;0.60;;;;;;;;;;5305699;28;20016;-71
2022/12/28 06:33:11;;;;;;;1.50;0.60;;;;;;;;;;5306351;28;20024;-70
2022/12/28 06:35:42;;;;;;;2.58;0.60;;;;;;;;;;5305073;28;20028;-70
2022/12/28 06:38:13;;;;;;;2.45;0.80;;;;;;;;;;5306466;28;20031;-71
2022/12/28 06:40:44;;;;;;;2.00;0.70;;;;;;;;;;5305527;28;20016;-70
2022/12/28 06:43:15;;;;;;;3.25;0.80;;;;;;;;;;5305115;28;20118;-71
2022/12/28 06:45:54;;;;;;;3.25;0.70;;;;;;;;;;5305439;28;20444;-70
2022/12/28 06:48:25;;;;;;;1.92;0.52;;;;;;;;;;5305643;28;20040;-71
2022/12/28 06:50:57;;;;;;;1.73;0.65;;;;;;;;;;5304900;28;20468;-70
2022/12/28 06:53:30;;;;;;;2.67;0.70;;;;;;;;;;5305818;28;20008;-70
2022/12/28 06:56:05;;;;;;;3.72;0.80;;;;;;;;;;5304837;28;20417;-72
2022/12/28 06:58:37;;;;;;;1.80;0.70;;;;;;;;;;5305445;28;20023;-71
2022/12/28 07:01:10;;;;;;;2.78;0.70;;;;;;;;;;5305647;28;20024;-70
2022/12/28 07:03:42;;;;;;;3.85;1.30;;;;;;;;;;5304134;28;20028;-70
2022/12/28 07:06:15;;;;;;;3.10;0.60;;;;;;;;;;5305799;28;20443;-71
2022/12/28 07:08:46;;;;;;;3.80;0.70;;;;;;;;;;5304963;28;20016;-71
2022/12/28 07:11:20;;;;;;;1.85;0.60;;;;;;;;;;5304998;28;20093;-70
2022/12/28 07:13:51;;;;;;;4.07;0.70;;;;;;;;;;5305424;28;20099;-70
2022/12/28 07:16:23;;;;;;;3.80;0.98;;;;;;;;;;5305269;28;20099;-71
2022/12/28 07:18:55;;;;;;;2.90;0.60;;;;;;;;;;5304355;28;20099;-71
2022/12/28 07:21:36;;;;;;;2.80;0.60;;;;;;;;;;5304922;28;20099;-71
2022/12/28 07:24:07;;;;;;;2.42;0.70;;;;;;;;;;5304556;28;20035;-72
2022/12/28 07:26:39;;;;;;;5.80;1.00;;;;;;;;;;5304434;28;20434;-70
2022/12/28 07:29:10;;;;;;;2.50;0.60;;;;;;;;;;5304760;28;20020;-70
2022/12/28 07:31:41;;;;;;;1.67;0.60;;;;;;;;;;5303767;28;20028;-70
2022/12/28 07:34:13;;;;;;;1.95;0.60;;;;;;;;;;5305194;28;20070;-71
2022/12/28 07:36:44;;;;;;;2.45;0.60;;;;;;;;;;5304523;28;20070;-71
2022/12/28 07:39:16;;;;;;;2.22;0.55;;;;;;;;;;5304347;28;20056;-70
2022/12/28 07:41:47;;;;;;;2.47;0.50;;;;;;;;;;5304150;28;20024;-71
2022/12/28 07:44:18;;;;;;;3.13;0.60;;;;;;;;;;5304658;28;20153;-70
2022/12/28 07:46:49;;;;;;;2.13;0.60;;;;;;;;;;5303353;28;20093;-70
2022/12/28 07:49:20;;;;;;;1.88;0.50;;;;;;;;;;5304727;28;20016;-71
2022/12/28 07:51:52;;;;;;;2.30;0.55;;;;;;;;;;5304357;28;20073;-71
2022/12/28 07:54:23;;;;;;;2.70;0.57;;;;;;;;;;5303578;28;20065;-71
2022/12/28 07:56:54;;;;;;;1.73;0.60;;;;;;;;;;5304075;28;20024;-71
2022/12/28 07:59:25;;;;;;;1.60;0.50;;;;;;;;;;5303385;28;20030;-72
2022/12/28 08:01:56;;;;;;;3.78;0.88;;;;;;;;;;5304107;28;20429;-72
2022/12/28 08:04:28;;;;;;;2.13;0.52;;;;;;;;;;5303857;28;20023;-71
2022/12/28 08:06:59;;;;;;;3.67;0.60;;;;;;;;;;5303363;28;20409;-70
2022/12/28 08:09:30;;;;;;;1.67;0.60;;;;;;;;;;5303751;28;20020;-71
2022/12/28 08:12:01;;;;;;;1.35;0.50;;;;;;;;;;5304054;28;20018;-70
2022/12/28 08:14:32;;;;;;;3.13;0.60;;;;;;;;;;5298518;28;20027;-70
2022/12/28 08:17:04;;;;;;;2.05;0.50;;;;;;;;;;5303639;28;20494;-70
2022/12/28 08:19:35;;;;;;;2.20;0.60;;;;;;;;;;5303269;28;20081;-70
2022/12/28 08:22:06;;;;;;;3.28;0.60;;;;;;;;;;5302903;28;20383;-70
2022/12/28 08:24:37;;;;;;;2.30;0.68;;;;;;;;;;5303585;28;20020;-70
2022/12/28 08:27:08;;;;;;;2.25;0.70;;;;;;;;;;5303571;28;20384;-71
2022/12/28 08:29:40;;;;;;;3.28;0.60;;;;;;;;;;5302316;28;20027;-72
2022/12/28 08:32:11;;;;;;;2.95;0.70;;;;;;;;;;5303555;28;20028;-72
2022/12/28 08:34:42;;;;;;;4.22;0.80;;;;;;;;;;5302097;28;20107;-72
2022/12/28 08:37:13;;;;;;;2.47;0.80;;;;;;;;;;5303530;28;20069;-71
2022/12/28 08:39:44;;;;;;;2.40;0.60;;;;;;;;;;5302915;28;20107;-72
2022/12/28 08:42:15;;;;;;;3.00;0.70;;;;;;;;;;5302522;28;20477;-71
2022/12/28 08:44:47;;;;;;;6.22;0.93;;;;;;;;;;5302811;28;20064;-70
2022/12/28 08:47:18;;;;;;;4.72;0.80;;;;;;;;;;5303410;28;20079;-71
2022/12/28 08:49:49;;;;;;;3.42;0.60;;;;;;;;;;5302204;28;20020;-71
2022/12/28 08:52:21;;;;;;;2.42;0.70;;;;;;;;;;5303220;28;20031;-71
2022/12/28 08:54:52;;;;;;;4.80;1.33;;;;;;;;;;5302655;28;20531;-71
2022/12/28 08:57:23;;;;;;;4.13;0.70;;;;;;;;;;5301822;28;20502;-70
2022/12/28 08:59:54;;;;;;;2.70;0.60;;;;;;;;;;5303193;28;20043;-70
2022/12/28 09:02:25;;;;;;;4.10;0.80;;;;;;;;;;5303001;28;20073;-72
2022/12/28 09:04:56;;;;;;;2.20;0.60;;;;;;;;;;5301954;28;20035;-71
2022/12/28 09:07:28;;;;;;;3.42;0.90;;;;;;;;;;5303031;28;20050;-71
2022/12/28 09:09:59;;;;;;;3.40;0.80;;;;;;;;;;5302229;28;20039;-70
2022/12/28 09:12:30;;;;;;;5.80;1.40;;;;;;;;;;5302992;28;20012;-71
2022/12/28 09:15:02;;;;;;;4.75;0.70;;;;;;;;;;5302929;28;20008;-70
2022/12/28 09:17:34;;;;;;;2.60;0.70;;;;;;;;;;5301865;28;20028;-71
2022/12/28 09:20:05;;;;;;;2.08;0.70;;;;;;;;;;5302756;28;20028;-71
2022/12/28 09:22:36;;;;;;;2.88;0.60;;;;;;;;;;5302990;28;20478;-71
2022/12/28 09:25:07;;;;;;;3.30;0.70;;;;;;;;;;5302086;28;20047;-71
2022/12/28 09:27:38;;;;;;;3.33;0.65;;;;;;;;;;5302595;28;20099;-71
2022/12/28 09:30:10;;;;;;;3.05;0.60;;;;;;;;;;5302715;28;20039;-71
2022/12/28 09:32:41;;;;;;;3.45;0.73;;;;;;;;;;5301424;28;20543;-70
2022/12/28 09:35:12;;;;;;;3.58;0.70;;;;;;;;;;5302855;28;20024;-71
2022/12/28 09:37:43;;;;;;;4.10;0.70;;;;;;;;;;5301890;28;20035;-71
2022/12/28 09:40:15;;;;;;;2.35;0.50;;;;;;;;;;5302072;28;20024;-72
2022/12/28 09:42:46;;;;;;;2.45;0.50;;;;;;;;;;5301600;28;20024;-71
2022/12/28 09:45:20;;;;;;;2.83;0.40;;;;;;;;;;5301769;28;20133;-70
2022/12/28 09:47:54;;;;;;;2.08;0.50;;;;;;;;;;5302121;28;20080;-71
2022/12/28 09:50:34;;;;;;;2.63;0.45;;;;;;;;;;5300659;28;20016;-71
2022/12/28 09:53:05;;;;;;;2.00;0.40;;;;;;;;;;5302516;28;20156;-71
2022/12/28 09:55:37;;;;;;;2.95;0.55;;;;;;;;;;5304616;28;20024;-68
2022/12/28 09:58:15;;;;;;;1.27;0.40;;;;;;;;;;5306471;28;20020;-70
2022/12/28 10:00:47;;;;;;;1.25;0.30;;;;;;;;;;5305502;28;20478;-70
2022/12/28 10:03:34;;;;;;;1.67;0.40;;;;;;;;;;5306319;28;20032;-70
2022/12/28 10:06:10;;;;;;;1.70;0.50;;;;;;;;;;5305402;28;20016;-71
2022/12/28 10:08:45;;;;;;;0.95;0.30;;;;;;;;;;5306036;28;20024;-71
2022/12/28 10:11:22;;;;;;;1.70;0.57;;;;;;;;;;5306894;28;20024;-70
2022/12/28 10:13:54;;;;;;;2.15;0.30;;;;;;;;;;5304221;28;20161;-70
2022/12/28 10:16:28;;;;;;;0.50;0.30;;;;;;;;;;5303978;28;20024;-71
2022/12/28 10:18:59;;;;;;;1.00;0.30;;;;;;;;;;5304190;28;20028;-70
2022/12/28 10:21:32;;;;;;;1.52;0.40;;;;;;;;;;5303385;28;20032;-70
2022/12/28 10:24:05;;;;;;;3.50;0.30;;;;;;;;;;5303743;28;20043;-70
2022/12/28 10:26:36;;;;;;;0.80;0.40;;;;;;;;;;5303612;28;20027;-70
2022/12/28 10:29:12;;;;;;;1.52;0.43;;;;;;;;;;5303056;28;20027;-70
2022/12/28 10:31:54;;;;;;;0.80;0.30;;;;;;;;;;5303614;28;20099;-71
2022/12/28 10:34:26;;;;;;;1.20;0.30;;;;;;;;;;5303006;28;20467;-71
2022/12/28 10:37:03;;;;;;;1.02;0.40;;;;;;;;;;5304666;28;20089;-71
2022/12/28 10:39:34;;;;;;;1.08;0.40;;;;;;;;;;5306191;28;20054;-71
2022/12/28 10:42:17;;;;;;;2.03;0.38;;;;;;;;;;5305332;28;20459;-71
2022/12/28 10:44:49;;;;;;;1.30;0.40;;;;;;;;;;5305535;28;20032;-71
2022/12/28 10:47:30;;;;;;;1.23;0.40;;;;;;;;;;5305550;28;20101;-71
2022/12/28 10:50:03;;;;;;;0.88;0.40;;;;;;;;;;5304869;28;20055;-72
2022/12/28 10:52:34;;;;;;;1.33;0.40;;;;;;;;;;5305493;28;20023;-70
2022/12/28 10:55:35;;;;;;;2.28;0.43;;;;;;;;;;5305535;28;20016;-69
2022/12/28 10:58:19;;;;;;;1.63;0.40;;;;;;;;;;5291823;28;20024;-69
2022/12/28 11:00:54;;;;;;;1.75;0.43;;;;;;;;;;5304966;28;20391;-71
2022/12/28 11:03:27;;;;;;;2.67;0.60;;;;;;;;;;5303581;28;20418;-72
2022/12/28 11:06:15;;;;;;;2.50;0.50;;;;;;;;;;5305458;28;20351;-70
2022/12/28 11:09:25;;;;;;;2.60;0.40;;;;;;;;;;5305185;28;20020;-70
2022/12/28 11:12:16;;;;;;;2.55;0.57;;;;;;;;;;5240276;28;20022;-71
2022/12/28 11:14:48;;;;;;;1.20;0.50;;;;;;;;;;5239911;28;20025;-71
2022/12/28 11:17:19;;;;;;;3.75;0.80;;;;;;;;;;5284852;28;20088;-72
2022/12/28 11:19:53;;;;;;;1.44;0.48;;;;;;;;;;5304491;28;20356;-70
2022/12/28 11:22:26;;;;;;;1.50;0.40;;;;;;;;;;5304958;28;20027;-69
2022/12/28 11:24:58;;;;;;;1.83;0.45;;;;;;;;;;5303844;28;20032;-70
2022/12/28 11:27:29;;;;;;;1.95;0.43;;;;;;;;;;5304583;28;20569;-70
2022/12/28 11:30:01;;;;;;;2.13;0.52;;;;;;;;;;5304879;28;20023;-70
2022/12/28 11:32:36;;;;;;;2.17;0.40;;;;;;;;;;5303833;28;20065;-70
2022/12/28 11:35:14;;;;;;;2.40;0.50;;;;;;;;;;5304614;28;20035;-70
2022/12/28 11:37:49;;;;;;;1.75;0.50;;;;;;;;;;5303597;28;20016;-70
2022/12/28 11:40:39;;;;;;;4.35;0.50;;;;;;;;;;5304842;28;20020;-70
2022/12/28 11:43:40;;;;;;;4.45;0.50;;;;;;;;;;5304749;28;20024;-70
2022/12/28 11:46:20;;;;;;;2.20;0.40;;;;;;;;;;5290510;28;20510;-70
2022/12/28 11:49:02;;;;;;;2.92;0.50;;;;;;;;;;5304354;28;20044;-70
2022/12/28 11:51:34;;;;;;;2.00;0.40;;;;;;;;;;5303424;28;20020;-70
2022/12/28 11:54:24;;;;;;;2.50;0.50;;;;;;;;;;5304370;28;20020;-69
2022/12/28 11:56:58;;;;;;;1.42;0.75;;;;;;;;;;5304267;28;20028;-70
2022/12/28 11:59:30;;;;;;;1.85;0.50;;;;;;;;;;5303579;28;20387;-71
2022/12/28 12:02:02;;;;;;;1.77;0.40;;;;;;;;;;5304134;28;20223;-70
2022/12/28 12:04:41;;;;;;;2.45;0.60;;;;;;;;;;5304015;28;20387;-70
2022/12/28 12:07:23;;;;;;;2.78;0.45;;;;;;;;;;5304260;28;20475;-69
2022/12/28 12:10:10;;;;;;;2.75;0.50;;;;;;;;;;5303776;28;20012;-70
2022/12/28 12:12:49;;;;;;;1.88;0.40;;;;;;;;;;5302622;28;20019;-68
2022/12/28 12:15:37;;;;;;;1.25;0.40;;;;;;;;;;5303201;28;20031;-70
2022/12/28 12:18:15;;;;;;;2.50;0.65;;;;;;;;;;5303841;28;20024;-69
2022/12/28 12:21:04;;;;;;;1.35;0.40;;;;;;;;;;5303008;28;20012;-69
2022/12/28 12:23:42;;;;;;;2.10;0.40;;;;;;;;;;5303693;28;20455;-69
2022/12/28 12:26:26;;;;;;;2.42;0.85;;;;;;;;;;5304151;28;20016;-69
2022/12/28 12:28:59;;;;;;;3.38;0.75;;;;;;;;;;5303247;28;20811;-69
2022/12/28 12:31:33;;;;;;;4.75;0.93;;;;;;;;;;5303587;28;20463;-69
2022/12/28 12:34:16;;;;;;;3.10;0.60;;;;;;;;;;5302714;28;20174;-70
2022/12/28 12:37:06;;;;;;;5.38;0.70;;;;;;;;;;5303087;28;20028;-70
2022/12/28 12:39:37;;;;;;;5.90;0.90;;;;;;;;;;5303340;28;20103;-70
2022/12/28 12:42:08;;;;;;;2.92;0.46;;;;;;;;;;5302603;28;20597;-69
2022/12/28 12:44:56;;;;;;;3.40;0.60;;;;;;;;;;5302821;28;20569;-70
2022/12/28 12:47:43;;;;;;;2.80;0.50;;;;;;;;;;5303216;28;20044;-70
2022/12/28 12:50:14;;;;;;;5.55;0.88;;;;;;;;;;5303613;28;20494;-70
2022/12/28 12:53:04;;;;;;;2.08;0.43;;;;;;;;;;5302811;28;20028;-70
2022/12/28 12:55:41;;;;;;;3.85;0.60;;;;;;;;;;5302469;28;20012;-71
2022/12/28 12:58:18;;;;;;;2.95;0.45;;;;;;;;;;5303196;28;20016;-70
2022/12/28 13:00:49;;;;;;;3.30;0.57;;;;;;;;;;5302805;28;20038;-69
2022/12/28 13:03:39;;;;;;;4.45;0.70;;;;;;;;;;5302181;28;20028;-69
2022/12/28 13:06:13;;;;;;;4.63;0.40;;;;;;;;;;5303548;28;20262;-71
2022/12/28 13:08:55;;;;;;;2.08;0.40;;;;;;;;;;5302617;28;20046;-70
2022/12/28 13:11:27;;;;;;;4.10;0.80;;;;;;;;;;5302484;28;20032;-70
2022/12/28 13:13:58;;;;;;;4.50;0.70;;;;;;;;;;5300853;28;20031;-70
2022/12/28 13:16:31;;;;;;;1.95;0.50;;;;;;;;;;5300104;28;20028;-69
2022/12/28 13:19:04;;;;;;;4.00;0.50;;;;;;;;;;5300307;28;20020;-69
2022/12/28 13:21:42;;;;;;;6.38;0.77;;;;;;;;;;5299837;28;20026;-70
2022/12/28 13:24:22;;;;;;;3.00;0.50;;;;;;;;;;5299795;28;20553;-70
2022/12/28 13:26:55;;;;;;;2.50;0.50;;;;;;;;;;5300412;28;20081;-71
2022/12/28 13:29:27;;;;;;;6.18;0.57;;;;;;;;;;5302738;28;20024;-71
2022/12/28 13:31:58;;;;;;;4.43;0.65;;;;;;;;;;5302018;28;20028;-71
2022/12/28 13:34:34;;;;;;;3.13;0.50;;;;;;;;;;5302254;28;20119;-71
2022/12/28 13:37:12;;;;;;;3.50;0.50;;;;;;;;;;5301775;28;20016;-71
2022/12/28 13:39:43;;;;;;;4.15;0.50;;;;;;;;;;5302344;28;20081;-71
2022/12/28 13:42:23;;;;;;;3.80;0.93;;;;;;;;;;5302589;28;20016;-71
2022/12/28 13:45:00;;;;;;;4.65;0.60;;;;;;;;;;5301455;28;20435;-71
2022/12/28 13:47:31;;;;;;;5.13;0.50;;;;;;;;;;5302321;28;20399;-71
2022/12/28 13:50:02;;;;;;;7.20;0.60;;;;;;;;;;5302534;28;20020;-70
2022/12/28 13:52:40;;;;;;;3.15;0.47;;;;;;;;;;5301734;28;20292;-71
2022/12/28 13:55:13;;;;;;;4.68;0.60;;;;;;;;;;5302661;28;20289;-72
2022/12/28 13:57:46;;;;;;;4.30;0.50;;;;;;;;;;5301993;28;20456;-71
2022/12/28 14:00:19;;;;;;;5.07;0.60;;;;;;;;;;5302044;28;20016;-72
2022/12/28 14:02:52;;;;;;;2.88;0.40;;;;;;;;;;5302073;28;20024;-72
2022/12/28 14:05:25;;;;;;;2.10;0.50;;;;;;;;;;5301512;28;20085;-71
2022/12/28 14:07:57;;;;;;;2.97;0.50;;;;;;;;;;5302109;28;20131;-71
2022/12/28 14:10:29;;;;;;;3.55;0.50;;;;;;;;;;5302509;28;20065;-71
2022/12/28 14:13:01;;;;;;;5.35;0.77;;;;;;;;;;5301625;28;20013;-72
2022/12/28 14:15:33;;;;;;;5.75;0.50;;;;;;;;;;5302423;28;20378;-72
2022/12/28 14:18:05;;;;;;;4.75;0.55;;;;;;;;;;5302162;28;20012;-71
2022/12/28 14:20:49;;;;;;;4.82;0.50;;;;;;;;;;5301744;28;20031;-71
2022/12/28 14:23:30;;;;;;;2.38;0.50;;;;;;;;;;5302431;28;20032;-71
2022/12/28 14:26:03;;;;;;;1.92;0.40;;;;;;;;;;5301927;28;20038;-71
2022/12/28 14:28:42;;;;;;;2.53;0.40;;;;;;;;;;5301440;28;20024;-71
2022/12/28 14:31:19;;;;;;;3.45;0.60;;;;;;;;;;5302295;28;20012;-71
2022/12/28 14:33:55;;;;;;;3.50;0.50;;;;;;;;;;5300895;28;20042;-71
2022/12/28 14:36:31;;;;;;;3.05;0.40;;;;;;;;;;5302071;28;20016;-71
2022/12/28 14:39:02;;;;;;;3.47;0.50;;;;;;;;;;5302968;28;20157;-71
2022/12/28 14:41:36;;;;;;;5.20;0.70;;;;;;;;;;5305320;28;20038;-72
2022/12/28 14:44:28;;;;;;;2.80;0.47;;;;;;;;;;5305688;28;20020;-72
2022/12/28 14:46:59;;;;;;;5.65;0.50;;;;;;;;;;5304790;28;20518;-71
2022/12/28 14:49:32;;;;;;;2.45;0.40;;;;;;;;;;5300767;28;20063;-71
2022/12/28 14:52:06;;;;;;;3.67;0.68;;;;;;;;;;5305366;28;20479;-69
2022/12/28 14:54:50;;;;;;;6.90;0.85;;;;;;;;;;5304466;28;20020;-68
2022/12/28 14:57:38;;;;;;;2.78;0.45;;;;;;;;;;5302993;28;20016;-68
2022/12/28 15:00:19;;;;;;;3.30;0.50;;;;;;;;;;5304882;28;20024;-69
2022/12/28 15:02:50;;;;;;;3.75;0.47;;;;;;;;;;5303758;28;20120;-68
2022/12/28 15:05:41;;;;;;;3.35;0.40;;;;;;;;;;5305074;28;20367;-69
2022/12/28 15:08:12;;;;;;;2.67;0.40;;;;;;;;;;5305137;28;20029;-69
2022/12/28 15:10:54;;;;;;;2.85;0.50;;;;;;;;;;5304515;28;20012;-69
2022/12/28 15:13:26;;;;;;;2.00;0.40;;;;;;;;;;5304975;28;20089;-70
2022/12/28 15:15:58;;;;;;;3.40;0.40;;;;;;;;;;5304549;28;20085;-68
2022/12/28 15:18:30;;;;;;;1.17;0.35;;;;;;;;;;5304994;28;20024;-69
2022/12/28 15:21:04;;;;;;;4.68;0.43;;;;;;;;;;5304929;28;20030;-69
2022/12/28 15:23:35;;;;;;;3.28;0.47;;;;;;;;;;5304107;28;20024;-69
2022/12/28 15:26:07;;;;;;;2.67;0.40;;;;;;;;;;5304722;28;20035;-69
2022/12/28 15:28:38;;;;;;;5.80;0.45;;;;;;;;;;5304481;28;20016;-69
2022/12/28 15:31:11;;;;;;;5.10;0.50;;;;;;;;;;5303873;28;20491;-68
2022/12/28 15:33:43;;;;;;;4.18;0.60;;;;;;;;;;5304246;28;20048;-69
2022/12/28 15:36:15;;;;;;;4.13;0.70;;;;;;;;;;5304643;28;20097;-69
2022/12/28 15:38:47;;;;;;;1.65;0.40;;;;;;;;;;5303787;28;20016;-69
2022/12/28 15:44:08;;;;;;;3.50;0.50;;;;;;;;;;5304020;28;20040;-69
2022/12/28 15:46:39;;;;;;;2.17;0.50;;;;;;;;;;5304077;28;20554;-69
2022/12/28 15:49:11;;;;;;;3.03;0.40;;;;;;;;;;5304472;28;20024;-69
2022/12/28 15:51:44;;;;;;;3.17;0.85;;;;;;;;;;5303119;28;20053;-70